sensor_id;sensor_type;location;lat;lon;timestamp;temperature;humidity
12847;DHT22;6492;48.128;8.320;2023-07-24T00:01:19;16.10;19.10
12847;DHT22;6492;48.128;8.320;2023-07-24T00:05:21;16.00;19.50
12847;DHT22;6492;48.128;8.320;2023-07-24T00:09:23;16.00;20.70
12847;DHT22;6492;48.128;8.320;2023-07-24T00:13:25;15.90;20.70
12847;DHT22;6492;48.128;8.320;2023-07-24T00:17:28;15.90;20.50
12847;DHT22;6492;48.128;8.320;2023-07-24T00:21:30;15.90;20.60
12847;DHT22;6492;48.128;8.320;2023-07-24T00:25:31;15.80;21.30
12847;DHT22;6492;48.128;8.320;2023-07-24T00:29:33;15.90;21.20
12847;DHT22;6492;48.128;8.320;2023-07-24T00:33:37;16.00;20.40
12847;DHT22;6492;48.128;8.320;2023-07-24T00:37:39;16.10;19.70
12847;DHT22;6492;48.128;8.320;2023-07-24T00:41:41;16.00;20.50
12847;DHT22;6492;48.128;8.320;2023-07-24T00:45:48;15.90;21.00
12847;DHT22;6492;48.128;8.320;2023-07-24T00:49:51;15.90;21.10
12847;DHT22;6492;48.128;8.320;2023-07-24T00:53:54;15.70;21.30
12847;DHT22;6492;48.128;8.320;2023-07-24T00:57:58;15.60;22.60
12847;DHT22;6492;48.128;8.320;2023-07-24T01:02:00;15.50;23.70
12847;DHT22;6492;48.128;8.320;2023-07-24T01:06:04;15.70;23.20
12847;DHT22;6492;48.128;8.320;2023-07-24T01:10:07;16.00;21.60
12847;DHT22;6492;48.128;8.320;2023-07-24T01:14:12;16.20;20.40
12847;DHT22;6492;48.128;8.320;2023-07-24T01:18:17;16.30;19.60
12847;DHT22;6492;48.128;8.320;2023-07-24T01:22:25;16.30;19.40
12847;DHT22;6492;48.128;8.320;2023-07-24T01:26:32;16.20;19.10
12847;DHT22;6492;48.128;8.320;2023-07-24T01:30:34;16.10;19.00
12847;DHT22;6492;48.128;8.320;2023-07-24T01:34:36;16.10;19.10
12847;DHT22;6492;48.128;8.320;2023-07-24T01:38:38;16.00;19.30
12847;DHT22;6492;48.128;8.320;2023-07-24T01:42:42;15.90;19.50
12847;DHT22;6492;48.128;8.320;2023-07-24T01:46:44;16.00;20.10
12847;DHT22;6492;48.128;8.320;2023-07-24T01:50:45;16.10;19.60
12847;DHT22;6492;48.128;8.320;2023-07-24T01:54:48;16.20;19.50
12847;DHT22;6492;48.128;8.320;2023-07-24T01:58:52;16.30;19.20
12847;DHT22;6492;48.128;8.320;2023-07-24T02:02:53;16.20;19.30
12847;DHT22;6492;48.128;8.320;2023-07-24T02:06:55;16.10;19.30
12847;DHT22;6492;48.128;8.320;2023-07-24T02:10:57;15.90;20.30
12847;DHT22;6492;48.128;8.320;2023-07-24T02:15:01;15.60;21.90
12847;DHT22;6492;48.128;8.320;2023-07-24T02:19:02;15.40;23.40
12847;DHT22;6492;48.128;8.320;2023-07-24T02:23:05;15.20;24.20
12847;DHT22;6492;48.128;8.320;2023-07-24T02:27:07;15.10;24.60
12847;DHT22;6492;48.128;8.320;2023-07-24T02:31:10;15.00;25.10
12847;DHT22;6492;48.128;8.320;2023-07-24T02:35:12;14.90;25.70
12847;DHT22;6492;48.128;8.320;2023-07-24T02:39:14;14.80;26.70
12847;DHT22;6492;48.128;8.320;2023-07-24T02:43:16;14.70;27.80
12847;DHT22;6492;48.128;8.320;2023-07-24T02:47:19;14.70;28.10
12847;DHT22;6492;48.128;8.320;2023-07-24T02:51:21;14.60;28.10
12847;DHT22;6492;48.128;8.320;2023-07-24T02:55:23;14.50;28.70
12847;DHT22;6492;48.128;8.320;2023-07-24T02:59:24;14.50;29.00
12847;DHT22;6492;48.128;8.320;2023-07-24T03:03:28;14.50;29.00
12847;DHT22;6492;48.128;8.320;2023-07-24T03:07:29;14.40;29.50
12847;DHT22;6492;48.128;8.320;2023-07-24T03:11:31;14.40;30.60
12847;DHT22;6492;48.128;8.320;2023-07-24T03:15:33;14.60;30.50
12847;DHT22;6492;48.128;8.320;2023-07-24T03:19:36;14.70;30.30
12847;DHT22;6492;48.128;8.320;2023-07-24T03:23:38;14.80;30.00
12847;DHT22;6492;48.128;8.320;2023-07-24T03:27:40;14.90;30.00
12847;DHT22;6492;48.128;8.320;2023-07-24T03:31:42;14.90;29.80
12847;DHT22;6492;48.128;8.320;2023-07-24T03:35:45;14.90;30.00
12847;DHT22;6492;48.128;8.320;2023-07-24T03:39:47;14.90;30.40
12847;DHT22;6492;48.128;8.320;2023-07-24T03:43:49;14.90;31.10
12847;DHT22;6492;48.128;8.320;2023-07-24T03:47:51;15.00;31.20
12847;DHT22;6492;48.128;8.320;2023-07-24T03:51:54;15.10;31.70
12847;DHT22;6492;48.128;8.320;2023-07-24T03:55:56;15.20;31.70
12847;DHT22;6492;48.128;8.320;2023-07-24T03:59:58;15.30;32.50
12847;DHT22;6492;48.128;8.320;2023-07-24T04:04:00;15.40;31.40
12847;DHT22;6492;48.128;8.320;2023-07-24T04:08:03;15.60;31.10
12847;DHT22;6492;48.128;8.320;2023-07-24T04:12:22;15.90;29.70
12847;DHT22;6492;48.128;8.320;2023-07-24T04:16:24;15.90;28.70
12847;DHT22;6492;48.128;8.320;2023-07-24T04:20:29;15.90;27.90
12847;DHT22;6492;48.128;8.320;2023-07-24T04:24:45;15.80;27.30
12847;DHT22;6492;48.128;8.320;2023-07-24T04:28:46;15.80;27.50
12847;DHT22;6492;48.128;8.320;2023-07-24T04:32:56;15.80;27.90
12847;DHT22;6492;48.128;8.320;2023-07-24T04:36:58;15.80;28.50
12847;DHT22;6492;48.128;8.320;2023-07-24T04:41:02;15.80;29.20
12847;DHT22;6492;48.128;8.320;2023-07-24T04:45:04;15.90;29.30
12847;DHT22;6492;48.128;8.320;2023-07-24T04:49:06;16.10;28.90
12847;DHT22;6492;48.128;8.320;2023-07-24T04:53:08;16.20;28.20
12847;DHT22;6492;48.128;8.320;2023-07-24T04:57:11;16.60;26.70
12847;DHT22;6492;48.128;8.320;2023-07-24T05:01:13;17.00;24.70
12847;DHT22;6492;48.128;8.320;2023-07-24T05:05:15;17.30;23.80
12847;DHT22;6492;48.128;8.320;2023-07-24T05:09:17;17.60;22.40
12847;DHT22;6492;48.128;8.320;2023-07-24T05:13:20;18.00;20.80
12847;DHT22;6492;48.128;8.320;2023-07-24T05:17:22;18.20;19.60
12847;DHT22;6492;48.128;8.320;2023-07-24T05:21:24;18.50;19.00
12847;DHT22;6492;48.128;8.320;2023-07-24T05:25:26;18.60;19.40
12847;DHT22;6492;48.128;8.320;2023-07-24T05:29:32;18.60;20.40
12847;DHT22;6492;48.128;8.320;2023-07-24T05:33:34;18.60;23.10
12847;DHT22;6492;48.128;8.320;2023-07-24T05:37:36;18.20;28.40
12847;DHT22;6492;48.128;8.320;2023-07-24T05:41:38;17.90;30.30
12847;DHT22;6492;48.128;8.320;2023-07-24T05:45:41;17.60;31.80
12847;DHT22;6492;48.128;8.320;2023-07-24T05:49:42;17.50;33.40
12847;DHT22;6492;48.128;8.320;2023-07-24T05:53:44;17.40;34.60
12847;DHT22;6492;48.128;8.320;2023-07-24T05:57:47;17.30;33.60
12847;DHT22;6492;48.128;8.320;2023-07-24T06:01:50;17.40;33.00
12847;DHT22;6492;48.128;8.320;2023-07-24T06:05:52;17.50;30.40
12847;DHT22;6492;48.128;8.320;2023-07-24T06:09:54;17.60;31.40
12847;DHT22;6492;48.128;8.320;2023-07-24T06:13:56;17.70;30.20
12847;DHT22;6492;48.128;8.320;2023-07-24T06:17:59;17.90;28.70
12847;DHT22;6492;48.128;8.320;2023-07-24T06:22:01;18.00;26.50
12847;DHT22;6492;48.128;8.320;2023-07-24T06:26:02;18.10;24.10
12847;DHT22;6492;48.128;8.320;2023-07-24T06:30:05;18.30;22.10
12847;DHT22;6492;48.128;8.320;2023-07-24T06:34:09;18.50;20.10
12847;DHT22;6492;48.128;8.320;2023-07-24T06:38:10;18.90;16.10
12847;DHT22;6492;48.128;8.320;2023-07-24T06:42:12;19.20;15.50
12847;DHT22;6492;48.128;8.320;2023-07-24T06:46:14;19.50;13.80
12847;DHT22;6492;48.128;8.320;2023-07-24T06:50:17;19.80;12.00
12847;DHT22;6492;48.128;8.320;2023-07-24T06:54:19;20.10;10.90
12847;DHT22;6492;48.128;8.320;2023-07-24T06:58:21;20.10;9.90
12847;DHT22;6492;48.128;8.320;2023-07-24T07:02:23;20.00;9.20
12847;DHT22;6492;48.128;8.320;2023-07-24T07:06:32;20.10;8.90
12847;DHT22;6492;48.128;8.320;2023-07-24T07:10:34;20.10;8.60
12847;DHT22;6492;48.128;8.320;2023-07-24T07:14:36;20.20;7.50
12847;DHT22;6492;48.128;8.320;2023-07-24T07:18:37;20.20;7.60
12847;DHT22;6492;48.128;8.320;2023-07-24T07:22:41;20.20;7.30
12847;DHT22;6492;48.128;8.320;2023-07-24T07:26:42;20.20;7.30
12847;DHT22;6492;48.128;8.320;2023-07-24T07:30:45;20.40;7.80
12847;DHT22;6492;48.128;8.320;2023-07-24T07:34:47;20.60;7.40
12847;DHT22;6492;48.128;8.320;2023-07-24T07:38:50;20.80;7.90
12847;DHT22;6492;48.128;8.320;2023-07-24T07:42:52;21.00;7.70
12847;DHT22;6492;48.128;8.320;2023-07-24T07:46:54;21.20;7.70
12847;DHT22;6492;48.128;8.320;2023-07-24T07:50:56;21.20;7.50
12847;DHT22;6492;48.128;8.320;2023-07-24T07:54:59;21.20;6.30
12847;DHT22;6492;48.128;8.320;2023-07-24T07:59:01;21.10;7.20
12847;DHT22;6492;48.128;8.320;2023-07-24T08:03:03;21.00;7.00
12847;DHT22;6492;48.128;8.320;2023-07-24T08:07:04;20.80;8.00
12847;DHT22;6492;48.128;8.320;2023-07-24T08:11:08;20.50;9.20
12847;DHT22;6492;48.128;8.320;2023-07-24T08:15:10;20.20;10.70
12847;DHT22;6492;48.128;8.320;2023-07-24T08:19:12;19.90;12.90
12847;DHT22;6492;48.128;8.320;2023-07-24T08:23:14;19.70;15.20
12847;DHT22;6492;48.128;8.320;2023-07-24T08:27:17;19.40;15.80
12847;DHT22;6492;48.128;8.320;2023-07-24T08:31:19;19.30;18.40
12847;DHT22;6492;48.128;8.320;2023-07-24T08:35:20;19.00;19.40
12847;DHT22;6492;48.128;8.320;2023-07-24T08:39:22;18.80;20.00
12847;DHT22;6492;48.128;8.320;2023-07-24T08:43:26;18.60;20.40
12847;DHT22;6492;48.128;8.320;2023-07-24T08:47:28;18.50;21.40
12847;DHT22;6492;48.128;8.320;2023-07-24T08:51:30;18.60;24.50
12847;DHT22;6492;48.128;8.320;2023-07-24T08:55:33;18.70;21.70
12847;DHT22;6492;48.128;8.320;2023-07-24T08:59:37;18.70;21.60
12847;DHT22;6492;48.128;8.320;2023-07-24T09:03:39;18.60;21.00
12847;DHT22;6492;48.128;8.320;2023-07-24T09:07:41;18.50;21.10
12847;DHT22;6492;48.128;8.320;2023-07-24T09:11:46;18.30;23.10
12847;DHT22;6492;48.128;8.320;2023-07-24T09:15:50;18.10;26.30
12847;DHT22;6492;48.128;8.320;2023-07-24T09:19:55;17.90;30.30
12847;DHT22;6492;48.128;8.320;2023-07-24T09:24:08;17.60;32.70
12847;DHT22;6492;48.128;8.320;2023-07-24T09:28:11;17.40;33.90
12847;DHT22;6492;48.128;8.320;2023-07-24T09:32:20;17.40;35.60
12847;DHT22;6492;48.128;8.320;2023-07-24T09:36:22;17.30;36.10
12847;DHT22;6492;48.128;8.320;2023-07-24T09:40:25;17.30;37.10
12847;DHT22;6492;48.128;8.320;2023-07-24T09:44:26;17.10;37.90
12847;DHT22;6492;48.128;8.320;2023-07-24T09:48:32;16.80;40.70
12847;DHT22;6492;48.128;8.320;2023-07-24T09:52:37;16.60;43.70
12847;DHT22;6492;48.128;8.320;2023-07-24T09:56:42;16.30;48.20
12847;DHT22;6492;48.128;8.320;2023-07-24T10:00:45;16.10;51.90
12847;DHT22;6492;48.128;8.320;2023-07-24T10:04:49;16.00;55.50
12847;DHT22;6492;48.128;8.320;2023-07-24T10:08:51;16.00;57.90
12847;DHT22;6492;48.128;8.320;2023-07-24T10:12:54;16.00;59.10
12847;DHT22;6492;48.128;8.320;2023-07-24T10:16:56;16.00;58.30
12847;DHT22;6492;48.128;8.320;2023-07-24T10:21:04;15.90;58.30
12847;DHT22;6492;48.128;8.320;2023-07-24T10:25:08;16.00;59.60
12847;DHT22;6492;48.128;8.320;2023-07-24T10:29:10;15.90;59.80
12847;DHT22;6492;48.128;8.320;2023-07-24T10:33:18;15.80;61.50
12847;DHT22;6492;48.128;8.320;2023-07-24T10:37:31;16.40;61.80
12847;DHT22;6492;48.128;8.320;2023-07-24T10:41:34;16.40;61.70
12847;DHT22;6492;48.128;8.320;2023-07-24T10:45:41;15.50;60.80
12847;DHT22;6492;48.128;8.320;2023-07-24T10:49:49;15.40;59.80
12847;DHT22;6492;48.128;8.320;2023-07-24T10:53:53;15.50;61.00
12847;DHT22;6492;48.128;8.320;2023-07-24T10:57:55;16.50;70.70
12847;DHT22;6492;48.128;8.320;2023-07-24T11:02:12;17.60;67.00
12847;DHT22;6492;48.128;8.320;2023-07-24T11:06:15;18.70;49.40
12847;DHT22;6492;48.128;8.320;2023-07-24T11:10:20;19.90;39.20
12847;DHT22;6492;48.128;8.320;2023-07-24T11:14:22;21.10;29.40
12847;DHT22;6492;48.128;8.320;2023-07-24T11:18:24;22.20;25.20
12847;DHT22;6492;48.128;8.320;2023-07-24T11:22:29;23.10;18.20
12847;DHT22;6492;48.128;8.320;2023-07-24T11:26:34;23.30;14.80
12847;DHT22;6492;48.128;8.320;2023-07-24T11:30:36;23.40;12.40
12847;DHT22;6492;48.128;8.320;2023-07-24T11:34:38;23.40;12.20
12847;DHT22;6492;48.128;8.320;2023-07-24T11:38:40;23.10;11.20
12847;DHT22;6492;48.128;8.320;2023-07-24T11:42:44;23.30;12.60
12847;DHT22;6492;48.128;8.320;2023-07-24T11:46:47;23.30;10.00
12847;DHT22;6492;48.128;8.320;2023-07-24T11:50:50;23.40;10.40
12847;DHT22;6492;48.128;8.320;2023-07-24T11:54:58;22.80;5.00
12847;DHT22;6492;48.128;8.320;2023-07-24T11:59:10;22.40;10.50
12847;DHT22;6492;48.128;8.320;2023-07-24T12:03:12;22.40;10.10
12847;DHT22;6492;48.128;8.320;2023-07-24T12:07:14;22.40;9.10
12847;DHT22;6492;48.128;8.320;2023-07-24T12:11:16;22.00;9.60
12847;DHT22;6492;48.128;8.320;2023-07-24T12:15:20;22.20;10.20
12847;DHT22;6492;48.128;8.320;2023-07-24T12:19:22;21.70;9.70
12847;DHT22;6492;48.128;8.320;2023-07-24T12:23:24;21.50;11.40
12847;DHT22;6492;48.128;8.320;2023-07-24T12:27:25;21.10;11.30
12847;DHT22;6492;48.128;8.320;2023-07-24T12:31:29;21.30;13.90
12847;DHT22;6492;48.128;8.320;2023-07-24T12:35:30;21.40;12.30
12847;DHT22;6492;48.128;8.320;2023-07-24T12:39:33;21.00;11.30
12847;DHT22;6492;48.128;8.320;2023-07-24T12:43:35;20.80;13.00
12847;DHT22;6492;48.128;8.320;2023-07-24T12:47:38;20.40;12.90
12847;DHT22;6492;48.128;8.320;2023-07-24T12:51:40;20.00;14.80
12847;DHT22;6492;48.128;8.320;2023-07-24T12:55:42;19.60;17.30
12847;DHT22;6492;48.128;8.320;2023-07-24T12:59:52;18.90;22.40
12847;DHT22;6492;48.128;8.320;2023-07-24T13:03:56;18.00;27.60
12847;DHT22;6492;48.128;8.320;2023-07-24T13:07:58;17.60;32.20
12847;DHT22;6492;48.128;8.320;2023-07-24T13:11:59;17.10;36.90
12847;DHT22;6492;48.128;8.320;2023-07-24T13:16:01;16.90;37.70
12847;DHT22;6492;48.128;8.320;2023-07-24T13:20:06;16.90;37.80
12847;DHT22;6492;48.128;8.320;2023-07-24T13:24:09;16.90;37.90
12847;DHT22;6492;48.128;8.320;2023-07-24T13:28:10;16.80;38.40
12847;DHT22;6492;48.128;8.320;2023-07-24T13:32:12;16.90;40.20
12847;DHT22;6492;48.128;8.320;2023-07-24T13:36:15;16.90;38.00
12847;DHT22;6492;48.128;8.320;2023-07-24T13:40:17;16.80;37.90
12847;DHT22;6492;48.128;8.320;2023-07-24T13:44:19;16.70;39.40
12847;DHT22;6492;48.128;8.320;2023-07-24T13:48:21;16.50;42.00
12847;DHT22;6492;48.128;8.320;2023-07-24T13:52:25;16.40;43.60
12847;DHT22;6492;48.128;8.320;2023-07-24T13:56:27;16.20;48.00
12847;DHT22;6492;48.128;8.320;2023-07-24T14:00:30;15.90;48.70
12847;DHT22;6492;48.128;8.320;2023-07-24T14:04:32;15.80;52.50
12847;DHT22;6492;48.128;8.320;2023-07-24T14:08:35;15.60;53.80
12847;DHT22;6492;48.128;8.320;2023-07-24T14:12:37;15.80;53.00
12847;DHT22;6492;48.128;8.320;2023-07-24T14:16:39;16.20;52.70
12847;DHT22;6492;48.128;8.320;2023-07-24T14:20:40;16.80;49.60
12847;DHT22;6492;48.128;8.320;2023-07-24T14:24:44;17.20;44.10
12847;DHT22;6492;48.128;8.320;2023-07-24T14:28:59;17.50;39.60
12847;DHT22;6492;48.128;8.320;2023-07-24T14:33:01;18.20;37.10
12847;DHT22;6492;48.128;8.320;2023-07-24T14:37:03;18.90;37.50
12847;DHT22;6492;48.128;8.320;2023-07-24T14:41:07;19.70;28.00
12847;DHT22;6492;48.128;8.320;2023-07-24T14:45:09;19.70;27.80
12847;DHT22;6492;48.128;8.320;2023-07-24T14:49:11;19.70;27.20
12847;DHT22;6492;48.128;8.320;2023-07-24T14:53:13;19.90;25.80
12847;DHT22;6492;48.128;8.320;2023-07-24T14:57:16;20.10;24.40
12847;DHT22;6492;48.128;8.320;2023-07-24T15:01:18;20.00;25.20
12847;DHT22;6492;48.128;8.320;2023-07-24T15:05:20;20.20;24.90
12847;DHT22;6492;48.128;8.320;2023-07-24T15:09:22;20.70;24.10
12847;DHT22;6492;48.128;8.320;2023-07-24T15:13:25;20.90;21.10
12847;DHT22;6492;48.128;8.320;2023-07-24T15:17:27;20.70;19.80
12847;DHT22;6492;48.128;8.320;2023-07-24T15:21:29;20.70;18.60
12847;DHT22;6492;48.128;8.320;2023-07-24T15:25:31;21.10;18.40
12847;DHT22;6492;48.128;8.320;2023-07-24T15:29:41;21.60;18.20
12847;DHT22;6492;48.128;8.320;2023-07-24T15:33:43;21.40;16.10
12847;DHT22;6492;48.128;8.320;2023-07-24T15:37:45;21.30;16.00
12847;DHT22;6492;48.128;8.320;2023-07-24T15:41:47;20.60;17.00
12847;DHT22;6492;48.128;8.320;2023-07-24T15:45:50;20.00;18.40
12847;DHT22;6492;48.128;8.320;2023-07-24T15:49:52;19.50;19.70
12847;DHT22;6492;48.128;8.320;2023-07-24T15:54:04;19.80;22.70
12847;DHT22;6492;48.128;8.320;2023-07-24T15:58:08;20.60;19.30
12847;DHT22;6492;48.128;8.320;2023-07-24T16:02:11;21.20;19.20
12847;DHT22;6492;48.128;8.320;2023-07-24T16:06:13;21.80;14.30
12847;DHT22;6492;48.128;8.320;2023-07-24T16:10:16;21.90;14.10
12847;DHT22;6492;48.128;8.320;2023-07-24T16:14:18;21.90;14.00
12847;DHT22;6492;48.128;8.320;2023-07-24T16:18:22;21.90;13.80
12847;DHT22;6492;48.128;8.320;2023-07-24T16:22:25;22.10;14.30
12847;DHT22;6492;48.128;8.320;2023-07-24T16:26:27;21.90;13.50
12847;DHT22;6492;48.128;8.320;2023-07-24T16:30:29;21.80;13.40
12847;DHT22;6492;48.128;8.320;2023-07-24T16:34:32;22.10;13.60
12847;DHT22;6492;48.128;8.320;2023-07-24T16:38:36;22.10;13.80
12847;DHT22;6492;48.128;8.320;2023-07-24T16:42:38;22.30;13.10
12847;DHT22;6492;48.128;8.320;2023-07-24T16:46:44;22.20;12.70
12847;DHT22;6492;48.128;8.320;2023-07-24T16:50:47;22.10;12.10
12847;DHT22;6492;48.128;8.320;2023-07-24T16:54:49;22.10;13.00
12847;DHT22;6492;48.128;8.320;2023-07-24T16:58:52;21.60;13.80
12847;DHT22;6492;48.128;8.320;2023-07-24T17:02:55;21.20;16.20
12847;DHT22;6492;48.128;8.320;2023-07-24T17:07:06;21.10;15.90
12847;DHT22;6492;48.128;8.320;2023-07-24T17:11:08;20.90;16.80
12847;DHT22;6492;48.128;8.320;2023-07-24T17:15:10;20.50;17.50
12847;DHT22;6492;48.128;8.320;2023-07-24T17:19:19;19.80;19.80
12847;DHT22;6492;48.128;8.320;2023-07-24T17:23:22;19.30;22.20
12847;DHT22;6492;48.128;8.320;2023-07-24T17:27:24;18.80;25.00
12847;DHT22;6492;48.128;8.320;2023-07-24T17:31:26;18.50;27.00
12847;DHT22;6492;48.128;8.320;2023-07-24T17:35:28;18.20;29.80
12847;DHT22;6492;48.128;8.320;2023-07-24T17:39:42;17.90;31.50
12847;DHT22;6492;48.128;8.320;2023-07-24T17:43:46;17.70;34.10
12847;DHT22;6492;48.128;8.320;2023-07-24T17:48:06;17.50;35.80
12847;DHT22;6492;48.128;8.320;2023-07-24T17:52:27;17.40;34.80
12847;DHT22;6492;48.128;8.320;2023-07-24T17:56:30;17.30;35.90
12847;DHT22;6492;48.128;8.320;2023-07-24T18:00:32;17.20;35.60
12847;DHT22;6492;48.128;8.320;2023-07-24T18:04:48;17.20;35.20
12847;DHT22;6492;48.128;8.320;2023-07-24T18:09:12;17.10;35.40
12847;DHT22;6492;48.128;8.320;2023-07-24T18:13:18;17.00;35.60
12847;DHT22;6492;48.128;8.320;2023-07-24T18:17:20;17.00;35.40
12847;DHT22;6492;48.128;8.320;2023-07-24T18:21:45;16.90;36.20
12847;DHT22;6492;48.128;8.320;2023-07-24T18:25:47;16.90;35.00
12847;DHT22;6492;48.128;8.320;2023-07-24T18:30:05;16.90;34.50
12847;DHT22;6492;48.128;8.320;2023-07-24T18:34:07;16.70;33.70
12847;DHT22;6492;48.128;8.320;2023-07-24T18:38:08;16.70;33.20
12847;DHT22;6492;48.128;8.320;2023-07-24T18:42:11;16.50;34.00
12847;DHT22;6492;48.128;8.320;2023-07-24T18:46:33;16.40;34.60
12847;DHT22;6492;48.128;8.320;2023-07-24T18:50:35;16.20;35.50
12847;DHT22;6492;48.128;8.320;2023-07-24T18:54:37;16.00;35.50
12847;DHT22;6492;48.128;8.320;2023-07-24T18:58:42;15.90;36.40
12847;DHT22;6492;48.128;8.320;2023-07-24T19:02:45;15.80;37.00
12847;DHT22;6492;48.128;8.320;2023-07-24T19:06:47;15.60;37.50
12847;DHT22;6492;48.128;8.320;2023-07-24T19:10:54;15.50;38.60
12847;DHT22;6492;48.128;8.320;2023-07-24T19:14:56;15.40;38.10
12847;DHT22;6492;48.128;8.320;2023-07-24T19:18:59;15.40;38.50
12847;DHT22;6492;48.128;8.320;2023-07-24T19:23:04;15.20;39.40
12847;DHT22;6492;48.128;8.320;2023-07-24T19:27:06;15.10;39.50
12847;DHT22;6492;48.128;8.320;2023-07-24T19:31:08;15.20;39.30
12847;DHT22;6492;48.128;8.320;2023-07-24T19:35:11;14.80;39.80
12847;DHT22;6492;48.128;8.320;2023-07-24T19:39:16;15.10;40.50
12847;DHT22;6492;48.128;8.320;2023-07-24T19:43:20;14.70;41.50
12847;DHT22;6492;48.128;8.320;2023-07-24T19:47:22;14.80;39.90
12847;DHT22;6492;48.128;8.320;2023-07-24T19:51:27;14.60;40.20
12847;DHT22;6492;48.128;8.320;2023-07-24T19:55:29;14.50;42.50
12847;DHT22;6492;48.128;8.320;2023-07-24T19:59:33;14.30;43.60
12847;DHT22;6492;48.128;8.320;2023-07-24T20:03:35;14.20;46.20
12847;DHT22;6492;48.128;8.320;2023-07-24T20:07:42;14.10;48.30
12847;DHT22;6492;48.128;8.320;2023-07-24T20:11:44;14.00;48.90
12847;DHT22;6492;48.128;8.320;2023-07-24T20:15:52;13.90;49.20
12847;DHT22;6492;48.128;8.320;2023-07-24T20:19:54;13.80;49.10
12847;DHT22;6492;48.128;8.320;2023-07-24T20:24:07;13.70;49.60
12847;DHT22;6492;48.128;8.320;2023-07-24T20:28:10;13.60;50.20
12847;DHT22;6492;48.128;8.320;2023-07-24T20:32:12;13.40;50.50
12847;DHT22;6492;48.128;8.320;2023-07-24T20:36:14;13.30;51.80
12847;DHT22;6492;48.128;8.320;2023-07-24T20:40:18;13.20;52.30
12847;DHT22;6492;48.128;8.320;2023-07-24T20:44:20;13.10;54.50
12847;DHT22;6492;48.128;8.320;2023-07-24T20:48:22;13.00;56.10
12847;DHT22;6492;48.128;8.320;2023-07-24T20:52:26;12.90;57.10
12847;DHT22;6492;48.128;8.320;2023-07-24T20:56:30;12.80;57.50
12847;DHT22;6492;48.128;8.320;2023-07-24T21:00:32;12.70;58.40
12847;DHT22;6492;48.128;8.320;2023-07-24T21:04:33;12.70;59.40
12847;DHT22;6492;48.128;8.320;2023-07-24T21:08:35;12.60;60.20
12847;DHT22;6492;48.128;8.320;2023-07-24T21:12:38;12.60;61.70
12847;DHT22;6492;48.128;8.320;2023-07-24T21:16:40;12.60;63.50
12847;DHT22;6492;48.128;8.320;2023-07-24T21:20:42;12.60;64.70
12847;DHT22;6492;48.128;8.320;2023-07-24T21:24:44;12.50;65.00
12847;DHT22;6492;48.128;8.320;2023-07-24T21:28:47;12.50;66.10
12847;DHT22;6492;48.128;8.320;2023-07-24T21:33:07;12.60;67.10
12847;DHT22;6492;48.128;8.320;2023-07-24T21:37:08;12.60;67.10
12847;DHT22;6492;48.128;8.320;2023-07-24T21:41:10;12.50;66.70
12847;DHT22;6492;48.128;8.320;2023-07-24T21:45:15;12.30;66.90
12847;DHT22;6492;48.128;8.320;2023-07-24T21:49:17;12.20;67.20
12847;DHT22;6492;48.128;8.320;2023-07-24T21:53:20;12.10;67.20
12847;DHT22;6492;48.128;8.320;2023-07-24T21:57:22;12.10;68.10
12847;DHT22;6492;48.128;8.320;2023-07-24T22:01:25;12.10;69.20
12847;DHT22;6492;48.128;8.320;2023-07-24T22:05:27;12.10;70.40
12847;DHT22;6492;48.128;8.320;2023-07-24T22:09:30;12.20;71.00
12847;DHT22;6492;48.128;8.320;2023-07-24T22:13:32;12.10;71.50
12847;DHT22;6492;48.128;8.320;2023-07-24T22:17:35;12.10;72.10
12847;DHT22;6492;48.128;8.320;2023-07-24T22:21:38;12.10;72.60
12847;DHT22;6492;48.128;8.320;2023-07-24T22:25:40;12.20;73.40
12847;DHT22;6492;48.128;8.320;2023-07-24T22:29:43;12.20;73.80
12847;DHT22;6492;48.128;8.320;2023-07-24T22:33:47;12.30;74.80
12847;DHT22;6492;48.128;8.320;2023-07-24T22:37:49;12.80;74.70
12847;DHT22;6492;48.128;8.320;2023-07-24T22:41:51;12.20;74.50
12847;DHT22;6492;48.128;8.320;2023-07-24T22:45:53;12.20;74.70
12847;DHT22;6492;48.128;8.320;2023-07-24T22:49:56;12.20;74.90
12847;DHT22;6492;48.128;8.320;2023-07-24T22:53:58;12.20;75.20
12847;DHT22;6492;48.128;8.320;2023-07-24T22:58:00;12.30;75.60
12847;DHT22;6492;48.128;8.320;2023-07-24T23:02:04;12.30;75.70
12847;DHT22;6492;48.128;8.320;2023-07-24T23:06:07;12.40;75.90
12847;DHT22;6492;48.128;8.320;2023-07-24T23:10:10;12.40;76.20
12847;DHT22;6492;48.128;8.320;2023-07-24T23:14:12;12.40;76.20
12847;DHT22;6492;48.128;8.320;2023-07-24T23:18:13;12.40;77.20
12847;DHT22;6492;48.128;8.320;2023-07-24T23:22:18;12.30;76.30
12847;DHT22;6492;48.128;8.320;2023-07-24T23:26:20;12.40;76.60
12847;DHT22;6492;48.128;8.320;2023-07-24T23:30:22;12.50;76.90
12847;DHT22;6492;48.128;8.320;2023-07-24T23:34:23;12.40;76.70
12847;DHT22;6492;48.128;8.320;2023-07-24T23:38:27;12.30;76.70
12847;DHT22;6492;48.128;8.320;2023-07-24T23:42:29;12.30;76.90
12847;DHT22;6492;48.128;8.320;2023-07-24T23:46:30;12.40;77.00
12847;DHT22;6492;48.128;8.320;2023-07-24T23:50:35;12.30;77.10
12847;DHT22;6492;48.128;8.320;2023-07-24T23:54:38;12.30;77.20
12847;DHT22;6492;48.128;8.320;2023-07-24T23:58:40;12.40;77.30
